Time;durP1;ratioP1;P1;durP2;ratioP2;P2;SDS_P1;SDS_P2;PMS_P1;PMS_P2;Temp;Humidity;BMP_temperature;BMP_pressure;BME280_temperature;BME280_humidity;BME280_pressure;Samples;Min_cycle;Max_cycle;Signal;HPM_P1;HPM_P2
2022/11/26 00:00:13;;;;;;;9.90;4.18;;;9.80;99.90;10.00;100691.00;;;;341459;28;91091;-92
2022/11/26 00:00:25;;;;;;;13.18;3.90;;;9.90;99.90;9.90;100688.00;;;;340233;28;83966;-92
2022/11/26 00:00:37;;;;;;;15.80;4.03;;;9.90;99.90;9.90;100682.00;;;;341612;28;88226;-92
2022/11/26 00:00:50;;;;;;;14.82;4.72;;;9.80;99.90;9.80;100691.00;;;;342926;28;83615;-93
2022/11/26 00:01:04;;;;;;;13.02;4.72;;;9.80;99.90;9.80;100692.00;;;;342459;28;93266;-92
2022/11/26 00:01:18;;;;;;;12.68;4.40;;;9.80;99.90;9.80;100697.00;;;;342144;28;83390;-92
2022/11/26 00:01:30;;;;;;;15.50;4.55;;;9.80;99.90;9.80;100692.00;;;;341552;28;88235;-92
2022/11/26 00:01:42;;;;;;;14.88;4.97;;;9.80;99.90;9.80;100692.00;;;;341786;28;83478;-92
2022/11/26 00:01:54;;;;;;;10.77;4.47;;;9.80;99.90;9.90;100691.00;;;;344187;28;88398;-92
2022/11/26 00:02:23;;;;;;;10.02;4.22;;;9.80;99.90;9.80;100692.00;;;;342936;28;83244;-92
2022/11/26 00:02:35;;;;;;;16.05;5.25;;;9.80;99.90;9.60;100691.00;;;;341577;28;90696;-92
2022/11/26 00:02:47;;;;;;;13.45;4.30;;;9.80;99.90;9.80;100697.00;;;;343243;28;82241;-92
2022/11/26 00:02:59;;;;;;;8.82;4.38;;;9.80;99.90;9.80;100690.00;;;;343755;28;91131;-92
2022/11/26 00:03:12;;;;;;;9.85;4.57;;;9.80;99.90;9.90;100695.00;;;;342045;28;83465;-93
2022/11/26 00:03:23;;;;;;;9.35;4.38;;;9.80;99.90;9.90;100695.00;;;;341156;28;93340;-92
2022/11/26 00:03:35;;;;;;;11.07;4.72;;;9.70;99.90;9.90;100690.00;;;;340473;28;82417;-93
2022/11/26 00:03:48;;;;;;;10.30;4.40;;;9.70;99.90;9.80;100690.00;;;;342917;28;89716;-92
2022/11/26 00:04:02;;;;;;;13.07;4.60;;;9.80;99.90;9.90;100688.00;;;;343258;28;83234;-93
2022/11/26 00:04:14;;;;;;;12.07;4.63;;;9.70;99.90;9.80;100700.00;;;;344109;28;90008;-93
2022/11/26 00:04:25;;;;;;;12.70;4.38;;;9.70;99.90;9.70;100692.00;;;;341779;28;82514;-93
2022/11/26 00:04:37;;;;;;;13.45;4.07;;;9.70;99.90;9.60;100694.00;;;;345422;28;89470;-92
2022/11/26 00:04:50;;;;;;;14.30;4.35;;;9.70;99.90;9.70;100697.00;;;;344577;28;82439;-93
2022/11/26 00:05:02;;;;;;;13.38;4.68;;;9.70;99.90;9.80;100691.00;;;;342749;28;90069;-92
2022/11/26 00:05:15;;;;;;;13.63;4.55;;;9.70;99.90;9.70;100692.00;;;;342318;28;83338;-93
2022/11/26 00:05:29;;;;;;;11.55;3.80;;;9.70;99.90;9.80;100696.00;;;;340043;28;88728;-94
2022/11/26 00:05:46;;;;;;;11.75;3.63;;;9.60;99.90;10.00;100693.00;;;;340015;28;83490;-93
2022/11/26 00:05:58;;;;;;;13.18;4.32;;;9.70;99.90;10.10;100698.00;;;;341485;28;87587;-92
2022/11/26 00:06:32;;;;;;;13.75;4.35;;;9.80;99.90;9.90;100701.00;;;;341219;28;85189;-92
2022/11/26 00:06:44;;;;;;;12.68;4.07;;;9.80;99.90;9.80;100700.00;;;;342602;28;89815;-93
2022/11/26 00:06:56;;;;;;;9.82;4.00;;;9.80;99.90;9.90;100703.00;;;;343096;28;83867;-92
2022/11/26 00:07:10;;;;;;;10.15;3.90;;;9.70;99.90;10.00;100702.00;;;;341389;28;89361;-92
2022/11/26 00:07:25;;;;;;;10.02;3.82;;;9.80;99.90;10.00;100703.00;;;;340167;28;83602;-92
2022/11/26 00:07:37;;;;;;;10.93;4.30;;;9.80;99.90;9.90;100701.00;;;;340069;28;88776;-93
2022/11/26 00:07:56;;;;;;;12.00;4.00;;;9.80;99.90;10.10;100704.00;;;;340563;28;83278;-92
2022/11/26 00:08:26;;;;;;;9.48;3.88;;;9.80;99.90;10.20;100710.00;;;;340080;28;90357;-91
2022/11/26 00:08:38;;;;;;;7.72;3.83;;;9.90;99.90;10.20;100711.00;;;;340512;28;83379;-92
2022/11/26 00:08:50;;;;;;;10.13;3.83;;;9.80;99.90;10.20;100701.00;;;;340265;28;86869;-92
2022/11/26 00:09:04;;;;;;;15.57;4.30;;;9.90;99.90;10.20;100707.00;;;;341497;28;83950;-91
2022/11/26 00:09:18;;;;;;;15.57;4.70;;;9.90;99.90;10.10;100709.00;;;;340730;28;89836;-92
2022/11/26 00:09:29;;;;;;;10.80;4.20;;;9.90;99.90;10.00;100702.00;;;;344282;28;82978;-92
2022/11/26 00:09:41;;;;;;;12.38;4.85;;;9.90;99.90;10.10;100702.00;;;;341276;28;90563;-92
2022/11/26 00:09:54;;;;;;;14.98;5.10;;;9.90;99.90;10.10;100703.00;;;;342880;28;82555;-92
2022/11/26 00:10:34;;;;;;;15.57;4.72;;;9.90;99.90;10.20;100709.00;;;;339990;28;89868;-91
2022/11/26 00:10:48;;;;;;;11.02;4.43;;;9.90;99.90;10.30;100713.00;;;;340122;28;83308;-92
2022/11/26 00:11:00;;;;;;;11.32;4.35;;;9.90;99.90;10.30;100708.00;;;;340033;28;88814;-92
2022/11/26 00:11:12;;;;;;;14.05;4.60;;;9.90;99.90;10.40;100712.00;;;;343273;28;82497;-92
2022/11/26 00:11:25;;;;;;;12.02;4.35;;;9.90;99.90;10.20;100707.00;;;;341592;28;88284;-91
2022/11/26 00:11:37;;;;;;;12.63;4.63;;;9.90;99.90;10.20;100712.00;;;;343231;28;83442;-92
2022/11/26 00:11:48;;;;;;;12.00;4.28;;;9.90;99.90;10.20;100708.00;;;;339902;28;92215;-92
2022/11/26 00:12:00;;;;;;;12.65;4.43;;;9.90;99.90;10.30;100714.00;;;;340526;28;83424;-92
2022/11/26 00:12:15;;;;;;;12.15;4.15;;;9.90;99.90;10.20;100704.00;;;;339983;28;89778;-92
2022/11/26 00:12:31;;;;;;;11.65;4.35;;;10.00;99.90;10.10;100706.00;;;;340286;28;83573;-92
2022/11/26 00:12:43;;;;;;;12.77;5.25;;;10.00;99.90;10.00;100704.00;;;;341394;28;88672;-92
2022/11/26 00:12:56;;;;;;;13.82;4.82;;;9.90;99.90;9.90;100709.00;;;;340400;28;83409;-92
2022/11/26 00:13:18;;;;;;;12.38;4.10;;;9.90;99.90;9.80;100707.00;;;;341327;28;91406;-91
2022/11/26 00:13:30;;;;;;;15.02;4.53;;;9.90;99.90;9.80;100711.00;;;;341619;28;83545;-92
2022/11/26 00:13:41;;;;;;;16.95;4.50;;;9.90;99.90;9.80;100714.00;;;;341267;28;91375;-91
2022/11/26 00:13:53;;;;;;;14.45;4.20;;;9.90;99.90;9.90;100706.00;;;;344306;28;83854;-92
2022/11/26 00:14:15;;;;;;;11.00;4.00;;;9.80;99.90;10.00;100712.00;;;;341280;28;89814;-91
2022/11/26 00:14:27;;;;;;;10.05;3.75;;;9.90;99.90;9.90;100713.00;;;;341615;28;85854;-91
2022/11/26 00:14:38;;;;;;;11.73;4.38;;;9.90;99.90;10.00;100711.00;;;;341541;28;90026;-92
2022/11/26 00:14:50;;;;;;;15.93;5.15;;;9.80;99.90;10.00;100710.00;;;;340262;28;83380;-92
2022/11/26 00:15:29;;;;;;;18.00;5.57;;;9.90;99.90;10.30;100724.00;;;;340228;28;88086;-93
2022/11/26 00:15:41;;;;;;;11.15;3.75;;;9.90;99.90;10.30;100715.00;;;;343455;28;82811;-92
2022/11/26 00:15:53;;;;;;;8.60;3.90;;;9.90;99.90;10.20;100715.00;;;;342702;28;90766;-92
2022/11/26 00:16:11;;;;;;;11.07;4.35;;;9.90;99.90;10.10;100714.00;;;;343053;28;83496;-92
2022/11/26 00:16:22;;;;;;;12.95;4.25;;;9.90;99.90;10.20;100712.00;;;;341343;28;89800;-93
2022/11/26 00:16:34;;;;;;;11.08;4.34;;;9.90;99.90;10.20;100713.00;;;;342846;28;84735;-92
2022/11/26 00:16:46;;;;;;;10.57;4.47;;;9.90;99.90;10.10;100716.00;;;;342871;28;90178;-92
2022/11/26 00:16:58;;;;;;;10.60;4.57;;;9.90;99.90;10.20;100719.00;;;;340426;28;83467;-92
2022/11/26 00:17:12;;;;;;;12.90;4.45;;;9.90;99.90;10.00;100712.00;;;;341443;28;88875;-92
2022/11/26 00:17:23;;;;;;;13.73;4.13;;;9.90;99.90;10.20;100721.00;;;;340262;28;83545;-92
2022/11/26 00:17:35;;;;;;;10.05;3.47;;;9.90;99.90;10.20;100715.00;;;;341377;28;89759;-93
2022/11/26 00:17:48;;;;;;;11.00;3.85;;;9.90;99.90;10.30;100716.00;;;;344594;28;82523;-93
2022/11/26 00:18:00;;;;;;;14.93;4.22;;;9.90;99.90;10.30;100715.00;;;;341398;28;90468;-93
2022/11/26 00:18:13;;;;;;;15.10;4.53;;;10.00;99.90;10.10;100723.00;;;;340199;28;83757;-93
2022/11/26 00:18:25;;;;;;;11.38;4.22;;;9.90;99.90;10.20;100721.00;;;;340181;28;86949;-92
2022/11/26 00:18:37;;;;;;;12.43;4.10;;;9.90;99.90;10.20;100724.00;;;;341814;28;82491;-93
2022/11/26 00:18:49;;;;;;;9.58;3.64;;;9.90;99.90;10.10;100716.00;;;;342867;28;88894;-93
2022/11/26 00:19:01;;;;;;;7.95;3.72;;;9.90;99.90;10.10;100722.00;;;;340393;28;83381;-92
2022/11/26 00:19:12;;;;;;;7.63;3.80;;;9.90;99.90;10.20;100722.00;;;;341405;28;89718;-92
2022/11/26 00:19:24;;;;;;;11.00;3.55;;;9.90;99.90;10.20;100722.00;;;;343170;28;82316;-93
2022/11/26 00:19:36;;;;;;;13.18;3.55;;;9.90;99.90;10.30;100722.00;;;;339855;28;92130;-93
2022/11/26 00:19:48;;;;;;;12.02;3.55;;;9.90;99.90;10.20;100725.00;;;;342857;28;83721;-93
2022/11/26 00:20:00;;;;;;;12.65;3.85;;;10.00;99.90;10.20;100726.00;;;;339992;28;91172;-92
2022/11/26 00:20:12;;;;;;;12.65;4.00;;;10.00;99.90;10.30;100724.00;;;;340334;28;84277;-93
2022/11/26 00:20:29;;;;;;;10.68;3.70;;;10.00;99.90;10.20;100720.00;;;;340058;28;88555;-92
2022/11/26 00:20:41;;;;;;;7.82;3.33;;;9.90;99.90;10.20;100730.00;;;;340259;28;83194;-92
2022/11/26 00:20:55;;;;;;;7.70;3.42;;;9.90;99.90;10.10;100728.00;;;;341263;28;90255;-92
2022/11/26 00:21:22;;;;;;;9.15;3.67;;;9.90;99.90;10.30;100732.00;;;;340383;28;84061;-92
2022/11/26 00:21:38;;;;;;;10.90;4.35;;;9.90;99.90;10.00;100733.00;;;;338819;28;89546;-92
2022/11/26 00:21:50;;;;;;;11.90;3.95;;;9.90;99.90;10.10;100727.00;;;;341889;28;82427;-93
2022/11/26 00:22:02;;;;;;;9.48;3.60;;;9.90;99.90;10.20;100726.00;;;;341201;28;91471;-92
2022/11/26 00:22:29;;;;;;;11.13;4.18;;;9.90;99.90;10.00;100730.00;;;;340498;28;82272;-92
2022/11/26 00:22:45;;;;;;;10.63;4.45;;;9.90;99.90;9.90;100729.00;;;;341376;28;90468;-92
2022/11/26 00:23:03;;;;;;;11.80;4.70;;;9.90;99.90;9.90;100729.00;;;;342716;28;84246;-93
2022/11/26 00:23:24;;;;;;;12.10;4.43;;;9.90;99.90;10.00;100726.00;;;;340055;28;88447;-92
2022/11/26 00:23:36;;;;;;;10.13;3.92;;;9.90;99.90;10.20;100723.00;;;;340388;28;83421;-92
2022/11/26 00:23:48;;;;;;;11.68;4.00;;;9.90;99.90;10.20;100729.00;;;;341278;28;92387;-92
2022/11/26 00:24:01;;;;;;;12.23;4.10;;;9.90;99.90;10.30;100723.00;;;;340555;28;83370;-93
2022/11/26 00:24:27;;;;;;;12.05;3.92;;;9.90;99.90;10.10;100726.00;;;;339760;28;91154;-92
2022/11/26 00:24:39;;;;;;;10.57;4.03;;;9.90;99.90;10.10;100724.00;;;;337846;28;82181;-92
2022/11/26 00:24:52;;;;;;;12.13;4.00;;;9.90;99.90;9.80;100726.00;;;;339845;28;87302;-90
2022/11/26 00:25:04;;;;;;;14.13;4.05;;;9.90;99.90;9.70;100718.00;;;;339073;28;83470;-91
2022/11/26 00:25:22;;;;;;;15.18;4.13;;;9.80;99.90;9.80;100721.00;;;;339808;28;93848;-93
2022/11/26 00:25:41;;;;;;;15.00;4.50;;;9.80;99.90;9.90;100721.00;;;;338958;28;85009;-92
2022/11/26 00:26:00;;;;;;;14.88;4.88;;;9.80;99.90;9.90;100726.00;;;;341496;28;90359;-92
2022/11/26 00:26:17;;;;;;;15.90;4.82;;;9.80;99.90;9.90;100718.00;;;;341737;28;83443;-92
2022/11/26 00:26:29;;;;;;;15.77;4.75;;;9.80;99.90;10.00;100723.00;;;;341168;28;90269;-92
2022/11/26 00:26:40;;;;;;;14.50;4.80;;;9.80;99.90;10.00;100722.00;;;;341809;28;83419;-92
2022/11/26 00:26:52;;;;;;;13.75;4.82;;;9.80;99.90;10.00;100720.00;;;;341423;28;89889;-91
2022/11/26 00:27:04;;;;;;;11.15;4.30;;;9.80;99.90;10.10;100722.00;;;;341830;28;83194;-92
2022/11/26 00:27:16;;;;;;;11.52;4.10;;;9.80;99.90;10.10;100721.00;;;;342781;28;89481;-92
2022/11/26 00:27:28;;;;;;;12.23;4.57;;;9.80;99.90;10.10;100724.00;;;;341814;28;83355;-92
2022/11/26 00:27:40;;;;;;;10.20;4.18;;;9.80;99.90;10.00;100721.00;;;;341403;28;89138;-92
2022/11/26 00:27:53;;;;;;;11.55;4.40;;;9.80;99.90;10.10;100719.00;;;;341657;28;83340;-92
2022/11/26 00:28:27;;;;;;;11.35;3.88;;;9.80;99.90;10.10;100719.00;;;;341442;28;90121;-92
2022/11/26 00:28:39;;;;;;;12.70;4.55;;;9.80;99.90;10.00;100715.00;;;;341799;28;83328;-92
2022/11/26 00:29:01;;;;;;;9.60;4.47;;;9.80;99.90;10.10;100722.00;;;;341339;28;88329;-90
2022/11/26 00:29:13;;;;;;;11.88;4.90;;;9.80;99.90;10.10;100727.00;;;;343054;28;83265;-92
2022/11/26 00:29:25;;;;;;;12.10;4.97;;;9.80;99.90;10.10;100719.00;;;;342654;28;91317;-92
2022/11/26 00:29:37;;;;;;;12.77;5.18;;;9.80;99.90;10.20;100724.00;;;;343161;28;82587;-92
2022/11/26 00:29:49;;;;;;;13.25;5.32;;;9.80;99.90;10.10;100725.00;;;;342448;28;91042;-92
2022/11/26 00:30:01;;;;;;;12.02;4.88;;;9.80;99.90;10.00;100719.00;;;;343161;28;83220;-92
2022/11/26 00:30:21;;;;;;;11.80;4.50;;;9.80;99.90;10.00;100723.00;;;;338744;28;89779;-92
2022/11/26 00:30:33;;;;;;;8.65;3.55;;;9.80;99.90;10.10;100718.00;;;;340545;28;82388;-92
2022/11/26 00:30:45;;;;;;;11.15;3.75;;;9.80;99.90;10.20;100721.00;;;;340107;28;89938;-92
2022/11/26 00:31:01;;;;;;;12.65;4.25;;;9.80;99.90;10.10;100725.00;;;;340510;28;82487;-92
2022/11/26 00:31:14;;;;;;;10.90;4.40;;;9.80;99.90;10.10;100711.00;;;;339773;28;91577;-93
2022/11/26 00:31:26;;;;;;;12.98;4.40;;;9.90;99.90;10.20;100718.00;;;;340072;28;83337;-93
2022/11/26 00:31:38;;;;;;;13.35;4.25;;;9.80;99.90;10.30;100723.00;;;;342536;28;91161;-92
2022/11/26 00:31:50;;;;;;;13.75;4.00;;;9.90;99.90;10.20;100724.00;;;;340471;28;82768;-92
2022/11/26 00:32:02;;;;;;;12.05;3.92;;;9.90;99.90;10.20;100724.00;;;;341237;28;90780;-91
2022/11/26 00:32:19;;;;;;;13.23;4.03;;;9.90;99.90;10.00;100723.00;;;;342800;28;84070;-93
2022/11/26 00:32:31;;;;;;;10.95;4.15;;;9.90;99.90;10.00;100719.00;;;;340115;28;87953;-92
2022/11/26 00:32:43;;;;;;;11.70;4.22;;;9.90;99.90;10.10;100714.00;;;;340499;28;82545;-92
2022/11/26 00:32:55;;;;;;;11.65;4.15;;;9.80;99.90;10.10;100727.00;;;;340068;28;89694;-92
2022/11/26 00:33:07;;;;;;;11.07;3.90;;;9.90;99.90;10.10;100719.00;;;;343200;28;82201;-92
2022/11/26 00:33:19;;;;;;;10.30;3.80;;;9.80;99.90;10.00;100713.00;;;;341261;28;91572;-92
2022/11/26 00:33:31;;;;;;;10.68;4.15;;;9.80;99.90;10.10;100721.00;;;;341596;28;83474;-92
2022/11/26 00:33:43;;;;;;;10.00;4.20;;;9.90;99.90;10.10;100722.00;;;;342781;28;89924;-93
2022/11/26 00:33:55;;;;;;;11.82;4.45;;;9.80;99.90;10.20;100732.00;;;;344428;28;83489;-92
2022/11/26 00:34:07;;;;;;;12.27;4.30;;;9.80;99.90;10.00;100725.00;;;;341488;28;88310;-93
2022/11/26 00:34:19;;;;;;;12.18;4.03;;;9.80;99.90;10.10;100714.00;;;;340375;28;83574;-92
2022/11/26 00:34:31;;;;;;;12.65;3.80;;;9.80;99.90;10.10;100711.00;;;;341542;28;89839;-92
2022/11/26 00:34:43;;;;;;;13.82;3.97;;;9.80;99.90;10.00;100718.00;;;;340636;28;83366;-93
2022/11/26 00:34:55;;;;;;;11.48;3.45;;;9.90;99.90;10.00;100723.00;;;;339929;28;91594;-91
2022/11/26 00:35:07;;;;;;;13.13;4.05;;;9.90;99.90;10.00;100717.00;;;;339689;28;82347;-92
2022/11/26 00:35:19;;;;;;;11.80;3.80;;;9.80;99.90;10.10;100729.00;;;;339451;28;88174;-92
2022/11/26 00:35:31;;;;;;;12.73;3.67;;;9.80;99.90;10.20;100725.00;;;;342278;28;83466;-93
2022/11/26 00:35:45;;;;;;;12.93;3.60;;;9.90;99.90;10.10;100728.00;;;;342942;28;90100;-92
2022/11/26 00:36:12;;;;;;;13.95;4.15;;;9.90;99.90;10.10;100738.00;;;;345239;28;83537;-93
2022/11/26 00:36:30;;;;;;;13.15;4.32;;;9.90;99.90;10.00;100754.00;;;;339248;28;91257;-93
2022/11/26 00:36:42;;;;;;;15.38;4.25;;;9.90;99.90;10.10;100751.00;;;;341102;28;83462;-92
2022/11/26 00:36:54;;;;;;;16.10;4.13;;;9.90;99.90;10.10;100743.00;;;;340489;28;91647;-92
2022/11/26 00:37:29;;;;;;;13.80;3.83;;;9.90;99.90;10.00;100744.00;;;;343700;28;83541;-91
2022/11/26 00:37:52;;;;;;;14.13;4.32;;;9.90;99.90;10.10;100737.00;;;;340035;28;88631;-92
2022/11/26 00:38:03;;;;;;;14.40;4.22;;;9.90;99.90;10.10;100741.00;;;;341812;28;83520;-92
2022/11/26 00:38:17;;;;;;;13.13;4.22;;;9.90;99.90;10.20;100752.00;;;;340041;28;88711;-93
2022/11/26 00:38:29;;;;;;;9.60;3.80;;;9.90;99.90;10.20;100745.00;;;;341725;28;82770;-91
2022/11/26 00:38:41;;;;;;;8.43;3.45;;;9.90;99.90;10.10;100734.00;;;;340108;28;89724;-91
2022/11/26 00:39:08;;;;;;;10.65;3.63;;;9.90;99.90;10.10;100737.00;;;;340786;28;82464;-92
2022/11/26 00:39:22;;;;;;;11.73;3.75;;;9.90;99.90;10.20;100740.00;;;;340538;28;92567;-93
2022/11/26 00:39:33;;;;;;;16.20;4.78;;;9.90;99.90;10.20;100744.00;;;;341117;28;82308;-91
2022/11/26 00:39:45;;;;;;;16.00;4.35;;;9.90;99.90;10.30;100742.00;;;;343114;28;90786;-92
2022/11/26 00:39:57;;;;;;;15.07;3.83;;;9.90;99.90;10.30;100740.00;;;;341003;28;82344;-92
2022/11/26 00:40:19;;;;;;;12.38;3.70;;;9.90;99.90;9.90;100738.00;;;;338086;28;88481;-92
2022/11/26 00:40:32;;;;;;;11.95;4.45;;;9.90;99.90;9.80;100736.00;;;;341063;28;82440;-92
2022/11/26 00:40:44;;;;;;;11.65;4.03;;;9.80;99.90;9.90;100730.00;;;;341254;28;92391;-92
2022/11/26 00:40:56;;;;;;;9.90;3.33;;;9.80;99.90;9.90;100738.00;;;;341014;28;82519;-92
2022/11/26 00:41:23;;;;;;;10.43;3.28;;;9.80;99.90;9.90;100734.00;;;;341976;28;90240;-91
2022/11/26 00:41:39;;;;;;;11.55;3.72;;;9.80;99.90;10.00;100738.00;;;;342418;28;82418;-91
2022/11/26 00:41:51;;;;;;;8.60;3.28;;;9.80;99.90;10.00;100735.00;;;;342109;28;87860;-92
2022/11/26 00:42:03;;;;;;;10.10;3.20;;;9.80;99.90;9.90;100730.00;;;;341040;28;83255;-91
2022/11/26 00:42:15;;;;;;;13.88;3.60;;;9.80;99.90;9.70;100732.00;;;;340208;28;88056;-91
2022/11/26 00:42:27;;;;;;;14.43;3.90;;;9.80;99.90;9.60;100733.00;;;;341902;28;82706;-92
2022/11/26 00:42:39;;;;;;;15.52;3.97;;;9.70;99.90;9.80;100735.00;;;;341975;28;88854;-93
2022/11/26 00:42:51;;;;;;;13.90;4.13;;;9.70;99.90;9.70;100741.00;;;;343291;28;82444;-91
2022/11/26 00:43:13;;;;;;;9.52;3.65;;;9.70;99.90;9.60;100735.00;;;;344443;28;89532;-92
2022/11/26 00:43:25;;;;;;;8.98;3.40;;;9.70;99.90;9.80;100740.00;;;;341896;28;83206;-91
2022/11/26 00:43:37;;;;;;;13.85;3.83;;;9.60;99.90;9.70;100727.00;;;;339881;28;90938;-91
2022/11/26 00:43:49;;;;;;;14.40;4.10;;;9.70;99.90;9.80;100732.00;;;;340057;28;83505;-91
2022/11/26 00:44:01;;;;;;;11.38;4.00;;;9.70;99.90;9.80;100741.00;;;;342619;28;89412;-91
2022/11/26 00:44:23;;;;;;;9.90;3.92;;;9.70;99.90;9.80;100746.00;;;;341988;28;83250;-91
2022/11/26 00:44:35;;;;;;;10.98;3.35;;;9.70;99.90;9.90;100733.00;;;;341515;28;88855;-91
2022/11/26 00:44:47;;;;;;;11.50;3.10;;;9.70;99.90;9.90;100736.00;;;;344304;28;83551;-92
2022/11/26 00:44:59;;;;;;;12.77;3.65;;;9.70;99.90;10.00;100724.00;;;;342827;28;89817;-92
2022/11/26 00:45:31;;;;;;;10.45;3.67;;;9.70;99.90;10.00;100739.00;;;;344568;28;82604;-92
2022/11/26 00:45:43;;;;;;;10.48;3.35;;;9.70;99.90;10.00;100731.00;;;;342511;28;87784;-91
2022/11/26 00:45:55;;;;;;;11.55;3.50;;;9.70;99.90;9.90;100731.00;;;;342023;28;82415;-91
2022/11/26 00:46:14;;;;;;;10.55;3.28;;;9.70;99.90;9.80;100736.00;;;;343272;28;86805;-91
2022/11/26 00:46:26;;;;;;;12.10;3.67;;;9.70;99.90;9.90;100725.00;;;;342122;28;83392;-92
2022/11/26 00:46:38;;;;;;;10.68;3.53;;;9.70;99.90;10.00;100731.00;;;;341203;28;91990;-93
2022/11/26 00:46:50;;;;;;;11.23;3.22;;;9.70;99.90;9.90;100734.00;;;;341532;28;83934;-91
2022/11/26 00:47:02;;;;;;;14.23;3.00;;;9.70;99.90;10.00;100727.00;;;;338847;28;89165;-92
2022/11/26 00:47:14;;;;;;;16.65;3.25;;;9.70;99.90;10.00;100729.00;;;;341656;28;84984;-92
2022/11/26 00:47:26;;;;;;;11.18;3.65;;;9.80;99.90;10.00;100726.00;;;;340174;28;89580;-91
2022/11/26 00:47:38;;;;;;;12.48;4.25;;;9.80;99.90;9.90;100731.00;;;;340488;28;82586;-92
2022/11/26 00:47:50;;;;;;;13.63;4.30;;;9.80;99.90;9.90;100726.00;;;;340229;28;89414;-91
2022/11/26 00:48:02;;;;;;;11.27;3.90;;;9.80;99.90;9.90;100729.00;;;;341955;28;83169;-91
2022/11/26 00:48:14;;;;;;;13.75;4.40;;;9.80;99.90;10.10;100725.00;;;;340131;28;89509;-91
2022/11/26 00:48:26;;;;;;;11.77;4.07;;;9.80;99.90;10.10;100733.00;;;;340490;28;83278;-92
2022/11/26 00:48:38;;;;;;;11.27;3.78;;;9.80;99.90;10.10;100725.00;;;;341323;28;91080;-91
2022/11/26 00:48:50;;;;;;;8.27;3.42;;;9.80;99.90;10.10;100730.00;;;;340542;28;83310;-93
2022/11/26 00:49:02;;;;;;;9.27;3.53;;;9.80;99.90;10.00;100727.00;;;;341204;28;92817;-92
2022/11/26 00:49:14;;;;;;;9.93;3.78;;;9.80;99.90;9.80;100729.00;;;;341603;28;82576;-91
2022/11/26 00:49:27;;;;;;;10.43;3.70;;;9.80;99.90;9.70;100723.00;;;;342566;28;92065;-92
2022/11/26 00:49:39;;;;;;;10.20;3.33;;;9.70;99.90;9.60;100722.00;;;;342813;28;84544;-91
2022/11/26 00:49:51;;;;;;;10.15;3.38;;;9.70;99.90;9.60;100729.00;;;;340207;28;86560;-91
2022/11/26 00:50:03;;;;;;;13.18;3.88;;;9.70;99.90;9.60;100721.00;;;;342647;28;83566;-91
2022/11/26 00:50:20;;;;;;;12.68;3.88;;;9.70;99.90;9.70;100724.00;;;;339784;28;90451;-91
2022/11/26 00:50:47;;;;;;;9.25;3.13;;;9.70;99.90;9.70;100724.00;;;;341726;28;83116;-91
2022/11/26 00:50:58;;;;;;;9.13;3.17;;;9.70;99.90;9.80;100734.00;;;;342530;28;91925;-91
2022/11/26 00:51:26;;;;;;;11.52;3.88;;;9.70;99.90;9.90;100728.00;;;;341724;28;83588;-91
2022/11/26 00:51:38;;;;;;;11.82;3.60;;;9.70;99.90;9.90;100727.00;;;;339994;28;91777;-92
2022/11/26 00:51:50;;;;;;;14.45;3.45;;;9.70;99.90;9.90;100728.00;;;;342250;28;84924;-93
2022/11/26 00:52:32;;;;;;;16.10;3.58;;;9.70;99.90;9.80;100720.00;;;;341971;28;89351;-91
2022/11/26 00:52:45;;;;;;;10.23;2.63;;;9.70;99.90;9.60;100728.00;;;;342101;28;84431;-91
2022/11/26 00:52:57;;;;;;;9.13;2.78;;;9.70;99.90;9.80;100717.00;;;;340459;28;90399;-94
2022/11/26 00:53:12;;;;;;;8.40;2.92;;;9.70;99.90;9.90;100723.00;;;;340820;28;82221;-92
2022/11/26 00:53:23;;;;;;;11.27;3.20;;;9.70;99.90;9.90;100722.00;;;;341942;28;92508;-93
2022/11/26 00:53:35;;;;;;;14.00;3.35;;;9.70;99.90;10.00;100717.00;;;;343608;28;82479;-91
2022/11/26 00:53:47;;;;;;;13.68;3.63;;;9.70;99.90;10.00;100714.00;;;;339241;28;90651;-92
2022/11/26 00:54:00;;;;;;;12.40;3.80;;;9.70;99.90;9.90;100712.00;;;;340945;28;83903;-92
2022/11/26 00:54:14;;;;;;;8.35;3.28;;;9.70;99.90;10.00;100711.00;;;;340271;28;92815;-92
2022/11/26 00:54:26;;;;;;;8.48;3.53;;;9.70;99.90;10.00;100713.00;;;;341438;28;85347;-92
2022/11/26 00:54:38;;;;;;;9.40;3.53;;;9.70;99.90;10.00;100715.00;;;;343018;28;91523;-91
2022/11/26 00:54:50;;;;;;;11.35;3.45;;;9.70;99.90;10.00;100712.00;;;;340727;28;84932;-91
2022/11/26 00:55:06;;;;;;;11.13;3.55;;;9.70;99.90;9.90;100707.00;;;;341722;28;90506;-92
2022/11/26 00:55:29;;;;;;;11.20;3.03;;;9.70;99.90;10.00;100712.00;;;;341755;28;83850;-91
2022/11/26 00:55:43;;;;;;;8.30;2.88;;;9.70;99.90;10.10;100713.00;;;;342679;28;87978;-92
2022/11/26 00:55:55;;;;;;;8.88;3.05;;;9.70;99.90;10.00;100715.00;;;;341779;28;83753;-91
2022/11/26 00:56:12;;;;;;;10.75;3.20;;;9.80;99.90;10.10;100717.00;;;;345505;28;91715;-92
2022/11/26 00:56:24;;;;;;;14.75;3.38;;;9.70;99.90;10.00;100712.00;;;;344459;28;84426;-92
2022/11/26 00:56:37;;;;;;;13.25;3.53;;;9.70;99.90;10.00;100714.00;;;;345255;28;91775;-91
2022/11/26 00:56:49;;;;;;;10.88;3.53;;;9.70;99.90;9.80;100713.00;;;;343085;28;84785;-93
2022/11/26 00:57:01;;;;;;;10.40;3.08;;;9.70;99.90;9.80;100714.00;;;;339809;28;92059;-93
2022/11/26 00:57:15;;;;;;;13.15;3.17;;;9.70;99.90;9.70;100709.00;;;;343074;28;83438;-93
2022/11/26 00:57:27;;;;;;;13.15;3.13;;;9.70;99.90;9.80;100713.00;;;;342712;28;91827;-92
2022/11/26 00:57:39;;;;;;;11.63;3.13;;;9.70;99.90;9.90;100716.00;;;;341655;28;83393;-92
2022/11/26 00:57:50;;;;;;;11.02;3.72;;;9.70;99.90;10.00;100711.00;;;;344081;28;92276;-91
2022/11/26 00:58:03;;;;;;;12.56;4.46;;;9.80;99.90;10.00;100712.00;;;;343048;28;84670;-92
2022/11/26 00:58:26;;;;;;;12.00;4.75;;;9.80;99.90;9.90;100715.00;;;;342611;28;91589;-92
2022/11/26 00:58:38;;;;;;;12.05;4.00;;;9.80;99.90;9.90;100713.00;;;;340320;28;84925;-92
2022/11/26 00:58:50;;;;;;;8.18;2.67;;;9.80;99.90;9.90;100709.00;;;;344064;28;91519;-91
2022/11/26 00:59:02;;;;;;;9.43;3.13;;;9.80;99.90;9.80;100718.00;;;;342973;28;84896;-92
2022/11/26 00:59:16;;;;;;;11.38;4.05;;;9.70;99.90;9.60;100716.00;;;;342605;28;91137;-91
2022/11/26 00:59:28;;;;;;;10.95;4.07;;;9.70;99.90;9.70;100712.00;;;;341811;28;84882;-91
2022/11/26 00:59:40;;;;;;;10.20;3.66;;;9.70;99.90;9.70;100699.00;;;;341488;28;88247;-92
2022/11/26 00:59:52;;;;;;;9.63;3.55;;;9.70;99.90;9.70;100708.00;;;;341740;28;84788;-92
2022/11/26 01:00:33;;;;;;;10.30;3.25;;;9.70;99.90;9.80;100705.00;;;;341305;28;92384;-92
2022/11/26 01:00:45;;;;;;;11.35;3.35;;;9.60;99.90;9.80;100705.00;;;;342676;28;84015;-92
2022/11/26 01:00:58;;;;;;;13.05;4.00;;;9.70;99.90;9.60;100703.00;;;;342150;28;91241;-92
2022/11/26 01:01:11;;;;;;;12.18;4.60;;;9.60;99.90;9.80;100698.00;;;;344062;28;83564;-92
2022/11/26 01:01:26;;;;;;;9.30;4.00;;;9.60;99.90;9.80;100692.00;;;;345145;28;92178;-91
2022/11/26 01:01:38;;;;;;;10.07;3.97;;;9.60;99.90;9.90;100698.00;;;;341319;28;85897;-92
2022/11/26 01:01:49;;;;;;;13.60;4.20;;;9.60;99.90;10.00;100696.00;;;;341461;28;91795;-91
2022/11/26 01:02:01;;;;;;;13.10;4.20;;;9.70;99.90;10.00;100693.00;;;;342814;28;83558;-91
2022/11/26 01:02:13;;;;;;;13.25;4.50;;;9.70;99.90;10.00;100701.00;;;;342580;28;90658;-92
2022/11/26 01:02:25;;;;;;;12.35;4.30;;;9.70;99.90;10.00;100688.00;;;;341522;28;83624;-91
2022/11/26 01:02:37;;;;;;;10.95;3.78;;;9.70;99.90;10.00;100685.00;;;;339979;28;90897;-91
2022/11/26 01:02:49;;;;;;;11.13;3.58;;;9.70;99.90;10.10;100681.00;;;;341581;28;83488;-92
2022/11/26 01:03:01;;;;;;;8.80;3.63;;;9.70;99.90;10.00;100690.00;;;;341125;28;91886;-91
2022/11/26 01:03:13;;;;;;;10.07;3.97;;;9.70;99.90;10.00;100686.00;;;;343080;28;83327;-92
2022/11/26 01:03:25;;;;;;;13.13;4.65;;;9.70;99.90;10.00;100689.00;;;;341137;28;90819;-91
2022/11/26 01:03:41;;;;;;;13.73;5.03;;;9.70;99.90;10.00;100689.00;;;;341519;28;83721;-91
2022/11/26 01:03:53;;;;;;;12.32;4.72;;;9.70;99.90;10.00;100683.00;;;;341046;28;90925;-91
2022/11/26 01:04:05;;;;;;;12.13;4.25;;;9.70;99.90;10.10;100682.00;;;;341811;28;84988;-91